»·PEaware :: N737MF L52-L88

N737MF :: L52-L88

FLIGHT INFORMATION

Flight Status: Arrived
Operator: Privately registered:
United States
More flights under this callsign
Pilot: Richard P. (20316)
Aircraft: CESSNA 172 SKYHAWK
(C172)
More flights by this aircraft type
Origin: L52 Oceano Co
United States
Destination: L88 New Cuyama
United States
More flights between these airports :: More routes between these airports
Route:
File this flight plan on PilotEdge
Remarks:
Altitude:
(Current/Filed)
7,500ft
Speed:
(Current/Filed)
117kts
Departed: 21-Nov-20 08:24 PM
Arrived: 21-Nov-20 08:59 PM
Distance/Time
Traveled:
47nm/0:35
Distance/Time
To Go:
Arrived

Flight Plot

Page will automatically refresh every two minutes.


Map Options




Map Legend


Flown Route
Filed Route
Departure Airport
Arrival Airport
Navaid (VOR, NDB)
Fix

Horizontal Profiles

Position Reports

Time Latitude Longitude Heading Altitude Ground
Speed
21-Nov-20 20:00 35.102802 -120.623604 214 20ft 0kts
21-Nov-20 20:01 35.102802 -120.623604 214 20ft 0kts
21-Nov-20 20:02 35.102802 -120.623604 214 20ft 0kts
21-Nov-20 20:03 35.102802 -120.623604 214 20ft 0kts
21-Nov-20 20:04 35.102802 -120.623604 214 20ft 0kts
21-Nov-20 20:05 35.102802 -120.623604 214 20ft 0kts
21-Nov-20 20:06 35.102802 -120.623604 214 20ft 0kts
21-Nov-20 20:06 35.102802 -120.623604 214 20ft 0kts
21-Nov-20 20:07 35.102802 -120.623604 214 20ft 0kts
21-Nov-20 20:08 35.102802 -120.623604 214 20ft 0kts
21-Nov-20 20:09 35.102802 -120.623604 214 20ft 0kts
21-Nov-20 20:10 35.102802 -120.623604 214 20ft 0kts
21-Nov-20 20:11 35.102802 -120.623604 214 20ft 0kts
21-Nov-20 20:12 35.102802 -120.623604 214 20ft 0kts
21-Nov-20 20:13 35.102802 -120.623604 214 20ft 0kts
21-Nov-20 20:14 35.102802 -120.623604 214 20ft 0kts
21-Nov-20 20:15 35.102801 -120.623605 213 20ft 0kts
21-Nov-20 20:16 35.101983 -120.622264 142 21ft 6kts
21-Nov-20 20:17 35.101056 -120.622402 122 20ft 8kts
21-Nov-20 20:18 35.099652 -120.619789 137 20ft 9kts
21-Nov-20 20:19 35.099465 -120.619500 65 21ft 0kts
21-Nov-20 20:20 35.099465 -120.619500 65 21ft 0kts
21-Nov-20 20:21 35.099465 -120.619500 65 21ft 0kts
21-Nov-20 20:22 35.099465 -120.619500 65 21ft 0kts
21-Nov-20 20:23 35.102429 -120.624002 303 55ft 80kts
21-Nov-20 20:24 35.103291 -120.645504 200 1216ft 73kts
21-Nov-20 20:25 35.087098 -120.629123 126 2187ft 84kts
21-Nov-20 20:26 35.088020 -120.604470 53 3207ft 76kts
21-Nov-20 20:27 35.096515 -120.580632 89 4163ft 77kts
21-Nov-20 20:28 35.091524 -120.553457 105 5021ft 90kts
21-Nov-20 20:29 35.086976 -120.522598 105 5865ft 92kts
21-Nov-20 20:30 35.081549 -120.491838 100 6637ft 94kts
21-Nov-20 20:31 35.076112 -120.460426 102 7368ft 95kts
21-Nov-20 20:32 35.069378 -120.425124 104 7526ft 110kts
21-Nov-20 20:33 35.064428 -120.387016 98 7551ft 115kts
21-Nov-20 20:34 35.056926 -120.349045 108 7575ft 115kts
21-Nov-20 20:35 35.048677 -120.311118 103 7575ft 116kts
21-Nov-20 20:36 35.042001 -120.272257 106 7559ft 116kts
21-Nov-20 20:37 35.034420 -120.233939 99 7549ft 117kts
21-Nov-20 20:38 35.044588 -120.196176 64 7518ft 120kts
21-Nov-20 20:39 35.060334 -120.160070 61 7557ft 116kts
21-Nov-20 20:40 35.075996 -120.132655 61 7659ft 72kts
21-Nov-20 20:41 35.090803 -120.104565 59 7681ft 105kts
21-Nov-20 20:42 35.091466 -120.070773 107 7409ft 97kts
21-Nov-20 20:43 35.083128 -120.038961 109 6789ft 108kts
21-Nov-20 20:44 35.071095 -120.007167 125 5860ft 109kts
21-Nov-20 20:45 35.058639 -119.975453 115 4969ft 103kts
21-Nov-20 20:46 35.047226 -119.943699 111 4520ft 114kts
21-Nov-20 20:47 35.035957 -119.912039 112 3886ft 99kts
21-Nov-20 20:48 35.023445 -119.879244 119 3153ft 102kts
21-Nov-20 20:49 35.006813 -119.853865 149 3313ft 88kts
21-Nov-20 20:50 34.982566 -119.841192 160 3288ft 98kts
21-Nov-20 20:51 34.963022 -119.819017 112 3219ft 104kts
21-Nov-20 20:52 34.947131 -119.790092 116 3231ft 99kts
21-Nov-20 20:53 34.941483 -119.756827 102 3266ft 100kts
21-Nov-20 20:54 34.935613 -119.723655 105 3325ft 99kts
21-Nov-20 20:55 34.927119 -119.693062 114 3191ft 84kts
21-Nov-20 20:56 34.926093 -119.669083 29 2861ft 81kts
21-Nov-20 20:57 34.938038 -119.680896 297 2224ft 59kts
21-Nov-20 20:58 34.941851 -119.690246 295 2165ft 10kts
21-Nov-20 20:59 34.943081 -119.691004 20 2156ft 0kts
21-Nov-20 21:00 34.943772 -119.691182 218 2151ft 0kts
21-Nov-20 21:01 34.943772 -119.691182 218 2151ft 0kts
21-Nov-20 21:02 34.943772 -119.691182 218 2151ft 0kts
21-Nov-20 21:03 34.943772 -119.691182 218 2151ft 0kts

Navigation Log

Ident Type
Flight plan parsing failed, navigation log unavailable